LIRQTNCM

Guest
Details From LIRQ - Firenze
To TNCM - St Maarten - Princess Juliana Intl
Flight Number -
Tags Generated
Created
Modified
Stats Distance 3,990 nm / 7,389 km
Max Altitude 0 ft / 0 m
Waypoints 7
Social Downloads 0
Likes 0
Share VATSIM

Download

Looking for another format? Having issues loading an existing format? Contact us
Advertisement - Login to hide

Notes

Generated

Route

LIRQ LUSOL TADAN KURUK TIMTO PJD TNCM

ID Type Via Altitude Latitude Longitude Leg Dist Tot Dist Heading (true) Name
O LIRQ APT - 0 ft / 0 m 43.80507˚ 11.19741˚ - 0 nm - -
LUSOL FIX - 0 ft / 0 m 43.77139˚ 6.07861˚ 221 nm 221 nm 271° / 268° -
TADAN FIX - 0 ft / 0 m 43.57694˚ 0.55833˚ 240 nm 461 nm 269° / 265° -
KURUK FIX - 0 ft / 0 m 43.23381˚ -3.93338˚ 197 nm 658 nm 266° / 262° -
TIMTO FIX - 0 ft / 0 m 38.38778˚ -27.32139˚ 1098 nm 1757 nm 263° / 247° -
PJD NDB - 0 ft / 0 m 18.03833˚ -63.11833˚ 2232 nm 3989 nm 247° / 229° ST MAARTEN NDB
O TNCM APT - 0 ft / 0 m 18.03937˚ -63.11961˚ 0 nm 3989 nm 310° / 310° -

Altitude Profile

Advertisement - Login to hide

Weather


0- 5 10 15 20 25 30 35+ Temperature / ° C

Clouds and Precipitation
Forecast for 2018-05-20 12:00 UTC. Updated an hour ago

Ground ~20,000 ft ~40,000 ft Winds

LIRQ

Details ICAO LIRQ (FLR)
Name Firenze
Region Italy
Timezone Europe/Rome (UTC+2.0)
Stats Elevation 142 ft / 43 m (AMSL)
Location 43.809984° 11.205118°
Runways 1
Magnetic Variation 2.922° E

METAR

LIRQ 201020Z 03007KT 340V080 9999 FEW050 26/12 Q1014

Decode

TAF

TAF LIRQ 200500Z 2006/2106 05006KT 9999 SCT050 TEMPO 2012/2019 4000 SHRA

Decode

Departure Runways

ID Width Length Bearing (true) Bearing (mag) Surface Threshold Offset Overrun Length
05 98 ft / 30 m 5,420 ft / 1,652 m 48.52° 45.60° Asphalt 492 ft / 150 m 0 ft / 0 m
23 98 ft / 30 m 5,420 ft / 1,652 m 228.53° 225.61° Asphalt 2,287 ft / 697 m 0 ft / 0 m

TNCM

Details ICAO TNCM (SXM)
Name St Maarten - Princess Juliana Intl
Region Caribbean Netherlands, Aruba, Curaçao, Sint Maarten
Timezone Unknown (UTC+0.0)
Stats Elevation 12 ft / 4 m (AMSL)
Location 18.040889° -63.108974°
Runways 1
Magnetic Variation 14.337° W

METAR

TNCM 201000Z 08009KT 9999 SCT018 26/21 Q1017 A3006 NOSIG

Decode

TAF

TAF TAF TNCM 200535Z 2006/2106 09010KT P6SM -RA SCT018 FM201300 09015KT P6SM VCSH SCT020 FM202300 09010KT P6SM SCT018

Decode

Destination Runways

ID Width Length Bearing (true) Bearing (mag) Surface Threshold Offset Overrun Length
10 148 ft / 45 m 7,464 ft / 2,275 m 81.43° 95.77° Asphalt 0 ft / 0 m 151 ft / 46 m
28 148 ft / 45 m 7,464 ft / 2,275 m 261.44° 275.78° Asphalt 397 ft / 121 m 0 ft / 0 m